首页
METAR-TAF:

METAR-TAF

机场 :

科利佐沃國際機場

葉卡捷琳堡, 俄罗斯

纬度: 56-50N, 经度: 060-38E, 海拔: 237米

当前天气观测

该预报发布于30分钟前的10:30 UTC
风速10节,风向西,在西转西南西转西北之间变化
温度 9°C
湿度 46%
气压 1010 hPa
能见度10公里或以上
1500米以下无云,无积雨云

METAR: USSS 241030Z 27005MPS 240V300 CAVOK 09/M02 Q1010 R26R/120050 NOSIG RMK QFE737/0983

时间: 16:00 (11:00 UTC)

预报

该预报发布于3小时和0分钟前的08:00 UTC
预报有效从24日的 09点(UTC)到 25日的 09点(UTC)
风速6节,风向西,有时为27节阵风
能见度10公里或以上
多云层高于1500英尺
散云层高于2000英尺, 积雨云.
短暂存在
从 24日的 12点(UTC)到 24日的 18点(UTC)
小阵雨
成为
从 24日的 22点(UTC)到 25日的 00点(UTC)
风速6节,风向,有时为23节阵风
短暂存在
从 24日的 23点(UTC)到 25日的 06点(UTC)
能見度: 3100
小阵雪, 雨

TAF: USSS 240800Z 2409/2509 28003G14MPS 9999 BKN015 SCT020CB TEMPO 2412/2418 -SHRA BECMG 2422/2500 35003G12MPS TEMPO 2423/2506 3100 -SHSNRA

超过4000个机场的气象观测和天气预报(METAR&TAF报告)。

可查询的气象台以黄色和红色小点在地图上表示。

将鼠标移到小点上方,可查看气象台名称。

然后点击查看天气观测和预报。

如需切换地图:点击带黑十字的绿色按钮放大地图;点击带横线的绿色按钮缩小地图;或者点击绿色箭头查看邻近地区的地图。


METAR-TAF: